sensor_id;sensor_type;location;lat;lon;timestamp;P1;durP1;ratioP1;P2;durP2;ratioP2
16254;SDS011;8235;52.198;9.904;2022-08-18T00:01:39;5.55;;;4.97;;
16254;SDS011;8235;52.198;9.904;2022-08-18T00:04:08;5.70;;;5.30;;
16254;SDS011;8235;52.198;9.904;2022-08-18T00:06:36;5.35;;;4.88;;
16254;SDS011;8235;52.198;9.904;2022-08-18T00:09:03;8.53;;;5.70;;
16254;SDS011;8235;52.198;9.904;2022-08-18T00:11:34;6.28;;;5.60;;
16254;SDS011;8235;52.198;9.904;2022-08-18T00:14:02;5.82;;;5.20;;
16254;SDS011;8235;52.198;9.904;2022-08-18T00:16:29;8.20;;;6.03;;
16254;SDS011;8235;52.198;9.904;2022-08-18T00:18:56;6.38;;;5.78;;
16254;SDS011;8235;52.198;9.904;2022-08-18T00:21:24;6.80;;;6.20;;
16254;SDS011;8235;52.198;9.904;2022-08-18T00:23:51;7.67;;;7.07;;
16254;SDS011;8235;52.198;9.904;2022-08-18T00:26:18;9.45;;;8.48;;
16254;SDS011;8235;52.198;9.904;2022-08-18T00:28:44;9.00;;;8.20;;
16254;SDS011;8235;52.198;9.904;2022-08-18T00:31:11;8.77;;;7.90;;
16254;SDS011;8235;52.198;9.904;2022-08-18T00:33:37;9.75;;;8.50;;
16254;SDS011;8235;52.198;9.904;2022-08-18T00:36:04;9.98;;;8.98;;
16254;SDS011;8235;52.198;9.904;2022-08-18T00:38:32;9.90;;;9.00;;
16254;SDS011;8235;52.198;9.904;2022-08-18T00:40:58;9.63;;;8.73;;
16254;SDS011;8235;52.198;9.904;2022-08-18T00:43:28;12.15;;;10.07;;
16254;SDS011;8235;52.198;9.904;2022-08-18T00:46:01;11.10;;;10.10;;
16254;SDS011;8235;52.198;9.904;2022-08-18T00:48:27;11.02;;;9.93;;
16254;SDS011;8235;52.198;9.904;2022-08-18T00:50:56;11.32;;;9.77;;
16254;SDS011;8235;52.198;9.904;2022-08-18T00:53:26;11.50;;;10.45;;
16254;SDS011;8235;52.198;9.904;2022-08-18T00:55:59;12.40;;;10.88;;
16254;SDS011;8235;52.198;9.904;2022-08-18T00:58:31;11.48;;;10.18;;
16254;SDS011;8235;52.198;9.904;2022-08-18T01:01:02;11.98;;;10.95;;
16254;SDS011;8235;52.198;9.904;2022-08-18T01:03:30;11.88;;;10.75;;
16254;SDS011;8235;52.198;9.904;2022-08-18T01:06:00;9.90;;;9.10;;
16254;SDS011;8235;52.198;9.904;2022-08-18T01:08:29;9.73;;;8.85;;
16254;SDS011;8235;52.198;9.904;2022-08-18T01:10:56;14.55;;;9.93;;
16254;SDS011;8235;52.198;9.904;2022-08-18T01:13:28;9.52;;;8.70;;
16254;SDS011;8235;52.198;9.904;2022-08-18T01:15:57;10.70;;;9.77;;
16254;SDS011;8235;52.198;9.904;2022-08-18T01:18:23;12.17;;;10.87;;
16254;SDS011;8235;52.198;9.904;2022-08-18T01:21:10;12.67;;;11.47;;
16254;SDS011;8235;52.198;9.904;2022-08-18T01:23:58;12.53;;;11.07;;
16254;SDS011;8235;52.198;9.904;2022-08-18T01:26:28;12.43;;;11.33;;
16254;SDS011;8235;52.198;9.904;2022-08-18T01:28:59;13.97;;;12.10;;
16254;SDS011;8235;52.198;9.904;2022-08-18T01:31:31;13.63;;;12.23;;
16254;SDS011;8235;52.198;9.904;2022-08-18T01:34:02;12.53;;;11.33;;
16254;SDS011;8235;52.198;9.904;2022-08-18T01:36:30;15.40;;;13.93;;
16254;SDS011;8235;52.198;9.904;2022-08-18T01:39:03;13.83;;;12.30;;
16254;SDS011;8235;52.198;9.904;2022-08-18T01:41:30;14.23;;;12.83;;
16254;SDS011;8235;52.198;9.904;2022-08-18T01:43:57;14.37;;;13.07;;
16254;SDS011;8235;52.198;9.904;2022-08-18T01:46:25;14.97;;;13.57;;
16254;SDS011;8235;52.198;9.904;2022-08-18T01:48:53;14.83;;;13.37;;
16254;SDS011;8235;52.198;9.904;2022-08-18T01:51:19;15.37;;;13.80;;
16254;SDS011;8235;52.198;9.904;2022-08-18T01:53:46;15.27;;;13.77;;
16254;SDS011;8235;52.198;9.904;2022-08-18T01:56:14;16.00;;;14.50;;
16254;SDS011;8235;52.198;9.904;2022-08-18T01:58:42;16.63;;;14.40;;
16254;SDS011;8235;52.198;9.904;2022-08-18T02:01:11;16.23;;;14.50;;
16254;SDS011;8235;52.198;9.904;2022-08-18T02:03:40;19.87;;;17.90;;
16254;SDS011;8235;52.198;9.904;2022-08-18T02:06:10;28.70;;;23.63;;
16254;SDS011;8235;52.198;9.904;2022-08-18T02:08:39;28.90;;;25.13;;
16254;SDS011;8235;52.198;9.904;2022-08-18T02:11:06;30.87;;;25.33;;
16254;SDS011;8235;52.198;9.904;2022-08-18T02:13:34;29.60;;;26.47;;
16254;SDS011;8235;52.198;9.904;2022-08-18T02:16:01;35.90;;;27.30;;
16254;SDS011;8235;52.198;9.904;2022-08-18T02:18:30;33.17;;;28.10;;
16254;SDS011;8235;52.198;9.904;2022-08-18T02:21:04;34.33;;;28.43;;
16254;SDS011;8235;52.198;9.904;2022-08-18T02:23:32;30.20;;;26.93;;
16254;SDS011;8235;52.198;9.904;2022-08-18T02:26:02;34.27;;;27.93;;
16254;SDS011;8235;52.198;9.904;2022-08-18T02:28:30;39.53;;;31.20;;
16254;SDS011;8235;52.198;9.904;2022-08-18T02:30:58;37.47;;;30.60;;
16254;SDS011;8235;52.198;9.904;2022-08-18T02:33:29;40.70;;;31.70;;
16254;SDS011;8235;52.198;9.904;2022-08-18T02:35:55;32.83;;;28.73;;
16254;SDS011;8235;52.198;9.904;2022-08-18T02:38:22;37.40;;;30.63;;
16254;SDS011;8235;52.198;9.904;2022-08-18T02:40:52;41.27;;;32.20;;
16254;SDS011;8235;52.198;9.904;2022-08-18T02:43:20;41.13;;;32.23;;
16254;SDS011;8235;52.198;9.904;2022-08-18T02:45:46;37.50;;;30.70;;
16254;SDS011;8235;52.198;9.904;2022-08-18T02:48:15;37.90;;;29.30;;
16254;SDS011;8235;52.198;9.904;2022-08-18T02:50:42;35.13;;;30.43;;
16254;SDS011;8235;52.198;9.904;2022-08-18T02:53:11;36.00;;;29.13;;
16254;SDS011;8235;52.198;9.904;2022-08-18T02:55:40;36.43;;;29.57;;
16254;SDS011;8235;52.198;9.904;2022-08-18T02:58:07;42.33;;;32.63;;
16254;SDS011;8235;52.198;9.904;2022-08-18T03:00:33;38.73;;;31.30;;
16254;SDS011;8235;52.198;9.904;2022-08-18T03:03:00;38.17;;;31.23;;
16254;SDS011;8235;52.198;9.904;2022-08-18T03:05:28;41.33;;;31.00;;
16254;SDS011;8235;52.198;9.904;2022-08-18T03:07:54;41.37;;;32.40;;
16254;SDS011;8235;52.198;9.904;2022-08-18T03:10:21;41.77;;;33.20;;
16254;SDS011;8235;52.198;9.904;2022-08-18T03:12:48;40.33;;;33.53;;
16254;SDS011;8235;52.198;9.904;2022-08-18T03:15:14;41.00;;;33.73;;
16254;SDS011;8235;52.198;9.904;2022-08-18T03:17:41;44.43;;;34.47;;
16254;SDS011;8235;52.198;9.904;2022-08-18T03:20:07;43.10;;;33.33;;
16254;SDS011;8235;52.198;9.904;2022-08-18T03:22:37;43.90;;;34.83;;
16254;SDS011;8235;52.198;9.904;2022-08-18T03:25:04;44.87;;;35.40;;
16254;SDS011;8235;52.198;9.904;2022-08-18T03:27:30;44.43;;;36.17;;
16254;SDS011;8235;52.198;9.904;2022-08-18T03:29:57;43.90;;;34.80;;
16254;SDS011;8235;52.198;9.904;2022-08-18T03:32:24;47.03;;;35.80;;
16254;SDS011;8235;52.198;9.904;2022-08-18T03:34:51;42.57;;;34.97;;
16254;SDS011;8235;52.198;9.904;2022-08-18T03:37:17;44.83;;;34.93;;
16254;SDS011;8235;52.198;9.904;2022-08-18T03:39:45;44.10;;;35.93;;
16254;SDS011;8235;52.198;9.904;2022-08-18T03:42:12;45.07;;;35.37;;
16254;SDS011;8235;52.198;9.904;2022-08-18T03:44:38;53.40;;;37.23;;
16254;SDS011;8235;52.198;9.904;2022-08-18T03:47:06;49.97;;;38.17;;
16254;SDS011;8235;52.198;9.904;2022-08-18T03:49:34;47.67;;;37.73;;
16254;SDS011;8235;52.198;9.904;2022-08-18T03:52:02;50.33;;;38.80;;
16254;SDS011;8235;52.198;9.904;2022-08-18T03:54:29;50.23;;;36.87;;
16254;SDS011;8235;52.198;9.904;2022-08-18T03:56:59;49.93;;;36.97;;
16254;SDS011;8235;52.198;9.904;2022-08-18T03:59:26;44.87;;;35.67;;
16254;SDS011;8235;52.198;9.904;2022-08-18T04:01:55;47.60;;;36.20;;
16254;SDS011;8235;52.198;9.904;2022-08-18T04:04:24;46.60;;;36.23;;
16254;SDS011;8235;52.198;9.904;2022-08-18T04:06:53;47.53;;;36.03;;
16254;SDS011;8235;52.198;9.904;2022-08-18T04:09:22;51.67;;;36.70;;
16254;SDS011;8235;52.198;9.904;2022-08-18T04:11:50;51.20;;;36.33;;
16254;SDS011;8235;52.198;9.904;2022-08-18T04:14:19;48.87;;;37.30;;
16254;SDS011;8235;52.198;9.904;2022-08-18T04:16:48;46.17;;;37.13;;
16254;SDS011;8235;52.198;9.904;2022-08-18T04:19:14;46.97;;;37.30;;
16254;SDS011;8235;52.198;9.904;2022-08-18T04:21:43;48.43;;;36.97;;
16254;SDS011;8235;52.198;9.904;2022-08-18T04:24:11;48.73;;;38.10;;
16254;SDS011;8235;52.198;9.904;2022-08-18T04:26:40;50.23;;;39.60;;
16254;SDS011;8235;52.198;9.904;2022-08-18T04:29:10;50.43;;;37.97;;
16254;SDS011;8235;52.198;9.904;2022-08-18T04:31:39;46.83;;;36.40;;
16254;SDS011;8235;52.198;9.904;2022-08-18T04:34:06;49.03;;;38.40;;
16254;SDS011;8235;52.198;9.904;2022-08-18T04:36:33;55.47;;;38.73;;
16254;SDS011;8235;52.198;9.904;2022-08-18T04:39:01;48.00;;;38.00;;
16254;SDS011;8235;52.198;9.904;2022-08-18T04:41:29;47.03;;;35.40;;
16254;SDS011;8235;52.198;9.904;2022-08-18T04:43:56;48.37;;;36.00;;
16254;SDS011;8235;52.198;9.904;2022-08-18T04:46:24;50.00;;;37.70;;
16254;SDS011;8235;52.198;9.904;2022-08-18T04:48:52;49.87;;;35.93;;
16254;SDS011;8235;52.198;9.904;2022-08-18T04:51:22;47.77;;;36.27;;
16254;SDS011;8235;52.198;9.904;2022-08-18T04:53:49;48.77;;;37.47;;
16254;SDS011;8235;52.198;9.904;2022-08-18T04:56:15;50.83;;;38.63;;
16254;SDS011;8235;52.198;9.904;2022-08-18T04:58:51;47.73;;;36.40;;
16254;SDS011;8235;52.198;9.904;2022-08-18T05:01:19;53.70;;;38.20;;
16254;SDS011;8235;52.198;9.904;2022-08-18T05:03:47;53.47;;;39.03;;
16254;SDS011;8235;52.198;9.904;2022-08-18T05:06:16;50.60;;;38.53;;
16254;SDS011;8235;52.198;9.904;2022-08-18T05:08:43;52.50;;;38.97;;
16254;SDS011;8235;52.198;9.904;2022-08-18T05:11:12;52.33;;;40.33;;
16254;SDS011;8235;52.198;9.904;2022-08-18T05:13:39;55.40;;;41.70;;
16254;SDS011;8235;52.198;9.904;2022-08-18T05:16:06;56.30;;;39.60;;
16254;SDS011;8235;52.198;9.904;2022-08-18T05:18:34;51.07;;;39.60;;
16254;SDS011;8235;52.198;9.904;2022-08-18T05:21:04;53.63;;;39.73;;
16254;SDS011;8235;52.198;9.904;2022-08-18T05:23:39;54.83;;;39.90;;
16254;SDS011;8235;52.198;9.904;2022-08-18T05:26:06;52.00;;;38.70;;
16254;SDS011;8235;52.198;9.904;2022-08-18T05:28:33;55.07;;;40.50;;
16254;SDS011;8235;52.198;9.904;2022-08-18T05:31:04;56.20;;;40.13;;
16254;SDS011;8235;52.198;9.904;2022-08-18T05:33:32;52.00;;;39.67;;
16254;SDS011;8235;52.198;9.904;2022-08-18T05:35:59;50.27;;;38.67;;
16254;SDS011;8235;52.198;9.904;2022-08-18T05:38:39;49.23;;;37.43;;
16254;SDS011;8235;52.198;9.904;2022-08-18T05:41:20;52.37;;;39.77;;
16254;SDS011;8235;52.198;9.904;2022-08-18T05:43:50;52.37;;;38.53;;
16254;SDS011;8235;52.198;9.904;2022-08-18T05:46:17;50.97;;;38.90;;
16254;SDS011;8235;52.198;9.904;2022-08-18T05:48:46;49.83;;;38.83;;
16254;SDS011;8235;52.198;9.904;2022-08-18T05:51:14;53.30;;;39.92;;
16254;SDS011;8235;52.198;9.904;2022-08-18T05:53:47;52.47;;;39.97;;
16254;SDS011;8235;52.198;9.904;2022-08-18T05:56:33;50.63;;;38.17;;
16254;SDS011;8235;52.198;9.904;2022-08-18T05:59:12;48.05;;;37.10;;
16254;SDS011;8235;52.198;9.904;2022-08-18T06:01:48;45.58;;;36.13;;
16254;SDS011;8235;52.198;9.904;2022-08-18T06:07:08;45.10;;;35.78;;
16254;SDS011;8235;52.198;9.904;2022-08-18T06:09:41;45.83;;;35.05;;
16254;SDS011;8235;52.198;9.904;2022-08-18T06:12:15;44.28;;;34.17;;
16254;SDS011;8235;52.198;9.904;2022-08-18T06:14:47;44.67;;;34.55;;
16254;SDS011;8235;52.198;9.904;2022-08-18T06:17:30;45.35;;;35.70;;
16254;SDS011;8235;52.198;9.904;2022-08-18T06:20:14;45.40;;;34.85;;
16254;SDS011;8235;52.198;9.904;2022-08-18T06:22:50;46.22;;;36.15;;
16254;SDS011;8235;52.198;9.904;2022-08-18T06:25:26;42.85;;;35.00;;
16254;SDS011;8235;52.198;9.904;2022-08-18T06:28:01;42.28;;;34.78;;
16254;SDS011;8235;52.198;9.904;2022-08-18T06:30:36;42.42;;;33.15;;
16254;SDS011;8235;52.198;9.904;2022-08-18T06:33:23;40.95;;;33.03;;
16254;SDS011;8235;52.198;9.904;2022-08-18T06:36:13;40.45;;;32.28;;
16254;SDS011;8235;52.198;9.904;2022-08-18T06:38:49;41.53;;;34.10;;
16254;SDS011;8235;52.198;9.904;2022-08-18T06:41:34;39.42;;;33.22;;
16254;SDS011;8235;52.198;9.904;2022-08-18T06:44:04;45.50;;;35.83;;
16254;SDS011;8235;52.198;9.904;2022-08-18T06:46:38;46.20;;;34.80;;
16254;SDS011;8235;52.198;9.904;2022-08-18T06:49:10;41.38;;;34.42;;
16254;SDS011;8235;52.198;9.904;2022-08-18T06:51:39;41.30;;;35.15;;
16254;SDS011;8235;52.198;9.904;2022-08-18T06:54:06;43.35;;;34.67;;
16254;SDS011;8235;52.198;9.904;2022-08-18T06:56:52;42.85;;;35.47;;
16254;SDS011;8235;52.198;9.904;2022-08-18T06:59:23;39.85;;;34.13;;
16254;SDS011;8235;52.198;9.904;2022-08-18T07:01:52;40.45;;;34.67;;
16254;SDS011;8235;52.198;9.904;2022-08-18T07:04:29;41.85;;;34.03;;
16254;SDS011;8235;52.198;9.904;2022-08-18T07:07:14;39.92;;;32.50;;
16254;SDS011;8235;52.198;9.904;2022-08-18T07:09:44;36.65;;;30.10;;
16254;SDS011;8235;52.198;9.904;2022-08-18T07:12:18;35.67;;;30.80;;
16254;SDS011;8235;52.198;9.904;2022-08-18T07:14:48;35.88;;;31.20;;
16254;SDS011;8235;52.198;9.904;2022-08-18T07:17:21;36.83;;;31.30;;
16254;SDS011;8235;52.198;9.904;2022-08-18T07:19:58;34.70;;;30.40;;
16254;SDS011;8235;52.198;9.904;2022-08-18T07:22:29;35.30;;;30.10;;
16254;SDS011;8235;52.198;9.904;2022-08-18T07:24:56;38.33;;;29.77;;
16254;SDS011;8235;52.198;9.904;2022-08-18T07:27:41;33.97;;;30.02;;
16254;SDS011;8235;52.198;9.904;2022-08-18T07:30:11;31.02;;;27.50;;
16254;SDS011;8235;52.198;9.904;2022-08-18T07:32:50;33.10;;;28.15;;
16254;SDS011;8235;52.198;9.904;2022-08-18T07:35:22;30.98;;;27.05;;
16254;SDS011;8235;52.198;9.904;2022-08-18T07:38:00;33.03;;;28.67;;
16254;SDS011;8235;52.198;9.904;2022-08-18T07:40:34;32.78;;;28.38;;
16254;SDS011;8235;52.198;9.904;2022-08-18T07:43:05;32.78;;;29.23;;
16254;SDS011;8235;52.198;9.904;2022-08-18T07:45:40;31.48;;;28.13;;
16254;SDS011;8235;52.198;9.904;2022-08-18T07:48:09;29.02;;;26.02;;
16254;SDS011;8235;52.198;9.904;2022-08-18T07:50:39;31.52;;;28.10;;
16254;SDS011;8235;52.198;9.904;2022-08-18T07:53:25;30.85;;;27.48;;
16254;SDS011;8235;52.198;9.904;2022-08-18T07:56:03;34.13;;;28.48;;
16254;SDS011;8235;52.198;9.904;2022-08-18T07:58:35;32.22;;;27.92;;
16254;SDS011;8235;52.198;9.904;2022-08-18T08:01:09;30.77;;;26.52;;
16254;SDS011;8235;52.198;9.904;2022-08-18T08:03:47;30.75;;;27.65;;
16254;SDS011;8235;52.198;9.904;2022-08-18T08:06:21;33.13;;;28.30;;
16254;SDS011;8235;52.198;9.904;2022-08-18T08:08:53;29.58;;;26.48;;
16254;SDS011;8235;52.198;9.904;2022-08-18T08:11:32;30.00;;;26.25;;
16254;SDS011;8235;52.198;9.904;2022-08-18T08:14:12;32.88;;;27.10;;
16254;SDS011;8235;52.198;9.904;2022-08-18T08:16:47;30.27;;;26.08;;
16254;SDS011;8235;52.198;9.904;2022-08-18T08:19:39;29.63;;;26.52;;
16254;SDS011;8235;52.198;9.904;2022-08-18T08:22:16;31.25;;;25.88;;
16254;SDS011;8235;52.198;9.904;2022-08-18T08:24:48;27.95;;;25.05;;
16254;SDS011;8235;52.198;9.904;2022-08-18T08:27:26;28.40;;;25.40;;
16254;SDS011;8235;52.198;9.904;2022-08-18T08:30:04;29.95;;;26.17;;
16254;SDS011;8235;52.198;9.904;2022-08-18T08:32:33;29.40;;;26.30;;
16254;SDS011;8235;52.198;9.904;2022-08-18T08:35:03;25.33;;;22.70;;
16254;SDS011;8235;52.198;9.904;2022-08-18T08:37:35;24.50;;;21.95;;
16254;SDS011;8235;52.198;9.904;2022-08-18T08:40:08;26.08;;;23.42;;
16254;SDS011;8235;52.198;9.904;2022-08-18T08:42:41;29.42;;;25.23;;
16254;SDS011;8235;52.198;9.904;2022-08-18T08:45:15;27.98;;;24.85;;
16254;SDS011;8235;52.198;9.904;2022-08-18T08:47:48;33.58;;;29.90;;
16254;SDS011;8235;52.198;9.904;2022-08-18T08:50:23;33.17;;;29.48;;
16254;SDS011;8235;52.198;9.904;2022-08-18T08:52:53;33.60;;;29.85;;
16254;SDS011;8235;52.198;9.904;2022-08-18T08:55:23;34.03;;;30.33;;
16254;SDS011;8235;52.198;9.904;2022-08-18T08:57:53;34.90;;;28.65;;
16254;SDS011;8235;52.198;9.904;2022-08-18T09:00:26;31.98;;;28.55;;
16254;SDS011;8235;52.198;9.904;2022-08-18T09:03:01;32.20;;;28.83;;
16254;SDS011;8235;52.198;9.904;2022-08-18T09:05:45;31.52;;;28.02;;
16254;SDS011;8235;52.198;9.904;2022-08-18T09:08:24;30.98;;;27.70;;
16254;SDS011;8235;52.198;9.904;2022-08-18T09:11:05;33.70;;;28.65;;
16254;SDS011;8235;52.198;9.904;2022-08-18T09:14:06;32.55;;;28.23;;
16254;SDS011;8235;52.198;9.904;2022-08-18T09:16:53;33.40;;;27.55;;
16254;SDS011;8235;52.198;9.904;2022-08-18T09:19:40;31.83;;;28.33;;
16254;SDS011;8235;52.198;9.904;2022-08-18T09:22:24;33.80;;;29.58;;
16254;SDS011;8235;52.198;9.904;2022-08-18T09:25:00;30.95;;;27.55;;
16254;SDS011;8235;52.198;9.904;2022-08-18T09:27:39;31.10;;;27.75;;
16254;SDS011;8235;52.198;9.904;2022-08-18T09:30:35;29.98;;;26.73;;
16254;SDS011;8235;52.198;9.904;2022-08-18T09:36:26;29.92;;;26.67;;
16254;SDS011;8235;52.198;9.904;2022-08-18T09:39:17;28.52;;;25.45;;
16254;SDS011;8235;52.198;9.904;2022-08-18T09:42:08;29.35;;;25.55;;
16254;SDS011;8235;52.198;9.904;2022-08-18T09:44:58;28.52;;;25.17;;
16254;SDS011;8235;52.198;9.904;2022-08-18T09:50:54;26.00;;;23.27;;
16254;SDS011;8235;52.198;9.904;2022-08-18T09:56:59;25.25;;;22.65;;
16254;SDS011;8235;52.198;9.904;2022-08-18T09:59:50;27.90;;;23.95;;
16254;SDS011;8235;52.198;9.904;2022-08-18T10:05:35;31.42;;;26.30;;
16254;SDS011;8235;52.198;9.904;2022-08-18T10:11:27;25.27;;;22.77;;
16254;SDS011;8235;52.198;9.904;2022-08-18T10:14:07;22.83;;;20.50;;
16254;SDS011;8235;52.198;9.904;2022-08-18T10:16:54;23.48;;;21.23;;
16254;SDS011;8235;52.198;9.904;2022-08-18T10:19:26;22.38;;;20.23;;
16254;SDS011;8235;52.198;9.904;2022-08-18T10:22:01;24.25;;;21.95;;
16254;SDS011;8235;52.198;9.904;2022-08-18T10:24:32;22.83;;;20.52;;
16254;SDS011;8235;52.198;9.904;2022-08-18T10:27:02;22.83;;;20.70;;
16254;SDS011;8235;52.198;9.904;2022-08-18T10:38:20;23.42;;;21.05;;
16254;SDS011;8235;52.198;9.904;2022-08-18T10:40:52;21.30;;;19.27;;
16254;SDS011;8235;52.198;9.904;2022-08-18T10:43:29;21.05;;;19.13;;
16254;SDS011;8235;52.198;9.904;2022-08-18T10:46:00;22.52;;;20.48;;
16254;SDS011;8235;52.198;9.904;2022-08-18T10:48:28;20.85;;;18.95;;
16254;SDS011;8235;52.198;9.904;2022-08-18T10:50:58;19.45;;;17.70;;
16254;SDS011;8235;52.198;9.904;2022-08-18T10:53:34;20.35;;;18.55;;
16254;SDS011;8235;52.198;9.904;2022-08-18T10:56:08;19.02;;;17.27;;
16254;SDS011;8235;52.198;9.904;2022-08-18T10:58:42;19.02;;;17.23;;
16254;SDS011;8235;52.198;9.904;2022-08-18T11:01:23;19.63;;;17.67;;
16254;SDS011;8235;52.198;9.904;2022-08-18T11:04:04;19.55;;;17.65;;
16254;SDS011;8235;52.198;9.904;2022-08-18T11:06:37;20.02;;;18.20;;
16254;SDS011;8235;52.198;9.904;2022-08-18T11:09:06;19.83;;;18.05;;
16254;SDS011;8235;52.198;9.904;2022-08-18T11:11:35;21.55;;;19.52;;
16254;SDS011;8235;52.198;9.904;2022-08-18T11:14:11;22.38;;;20.25;;
16254;SDS011;8235;52.198;9.904;2022-08-18T11:16:49;19.85;;;18.05;;
16254;SDS011;8235;52.198;9.904;2022-08-18T11:19:23;19.98;;;18.25;;
16254;SDS011;8235;52.198;9.904;2022-08-18T11:21:51;20.42;;;18.60;;
16254;SDS011;8235;52.198;9.904;2022-08-18T11:24:19;20.17;;;18.27;;
16254;SDS011;8235;52.198;9.904;2022-08-18T11:26:48;18.45;;;16.88;;
16254;SDS011;8235;52.198;9.904;2022-08-18T11:29:28;18.50;;;16.92;;
16254;SDS011;8235;52.198;9.904;2022-08-18T11:31:58;17.50;;;16.00;;
16254;SDS011;8235;52.198;9.904;2022-08-18T11:34:30;16.52;;;15.13;;
16254;SDS011;8235;52.198;9.904;2022-08-18T11:37:05;16.15;;;14.65;;
16254;SDS011;8235;52.198;9.904;2022-08-18T11:39:40;16.13;;;14.82;;
16254;SDS011;8235;52.198;9.904;2022-08-18T11:42:08;17.70;;;16.02;;
16254;SDS011;8235;52.198;9.904;2022-08-18T11:44:36;20.15;;;18.38;;
16254;SDS011;8235;52.198;9.904;2022-08-18T11:47:08;16.08;;;14.77;;
16254;SDS011;8235;52.198;9.904;2022-08-18T11:49:44;15.38;;;14.07;;
16254;SDS011;8235;52.198;9.904;2022-08-18T11:52:18;17.90;;;16.30;;
16254;SDS011;8235;52.198;9.904;2022-08-18T11:54:49;17.70;;;15.95;;
16254;SDS011;8235;52.198;9.904;2022-08-18T11:57:26;16.58;;;15.10;;
16254;SDS011;8235;52.198;9.904;2022-08-18T11:59:56;12.05;;;11.02;;
16254;SDS011;8235;52.198;9.904;2022-08-18T12:02:24;15.48;;;14.15;;
16254;SDS011;8235;52.198;9.904;2022-08-18T12:04:51;12.90;;;11.75;;
16254;SDS011;8235;52.198;9.904;2022-08-18T12:07:26;14.73;;;13.43;;
16254;SDS011;8235;52.198;9.904;2022-08-18T12:10:08;14.88;;;13.68;;
16254;SDS011;8235;52.198;9.904;2022-08-18T12:12:43;14.70;;;13.35;;
16254;SDS011;8235;52.198;9.904;2022-08-18T12:15:24;13.60;;;12.48;;
16254;SDS011;8235;52.198;9.904;2022-08-18T12:17:53;15.57;;;14.25;;
16254;SDS011;8235;52.198;9.904;2022-08-18T12:20:20;13.80;;;12.55;;
16254;SDS011;8235;52.198;9.904;2022-08-18T12:22:47;12.60;;;11.60;;
16254;SDS011;8235;52.198;9.904;2022-08-18T12:25:15;12.18;;;11.10;;
16254;SDS011;8235;52.198;9.904;2022-08-18T12:27:43;13.90;;;12.60;;
16254;SDS011;8235;52.198;9.904;2022-08-18T12:30:10;13.60;;;12.45;;
16254;SDS011;8235;52.198;9.904;2022-08-18T12:32:39;12.48;;;11.48;;
16254;SDS011;8235;52.198;9.904;2022-08-18T12:35:06;15.13;;;12.95;;
16254;SDS011;8235;52.198;9.904;2022-08-18T12:37:35;13.98;;;12.88;;
16254;SDS011;8235;52.198;9.904;2022-08-18T12:40:03;13.27;;;12.07;;
16254;SDS011;8235;52.198;9.904;2022-08-18T12:42:30;12.27;;;11.13;;
16254;SDS011;8235;52.198;9.904;2022-08-18T12:44:56;13.52;;;12.43;;
16254;SDS011;8235;52.198;9.904;2022-08-18T12:47:23;11.95;;;10.95;;
16254;SDS011;8235;52.198;9.904;2022-08-18T12:49:52;11.77;;;10.88;;
16254;SDS011;8235;52.198;9.904;2022-08-18T12:52:19;13.82;;;12.43;;
16254;SDS011;8235;52.198;9.904;2022-08-18T12:54:46;13.45;;;12.35;;
16254;SDS011;8235;52.198;9.904;2022-08-18T12:57:15;11.90;;;10.90;;
16254;SDS011;8235;52.198;9.904;2022-08-18T12:59:45;11.32;;;10.43;;
16254;SDS011;8235;52.198;9.904;2022-08-18T13:02:12;11.23;;;10.32;;
16254;SDS011;8235;52.198;9.904;2022-08-18T13:04:39;12.15;;;11.15;;
16254;SDS011;8235;52.198;9.904;2022-08-18T13:07:09;13.38;;;12.15;;
16254;SDS011;8235;52.198;9.904;2022-08-18T13:09:37;12.00;;;10.95;;
16254;SDS011;8235;52.198;9.904;2022-08-18T13:12:05;12.40;;;11.15;;
16254;SDS011;8235;52.198;9.904;2022-08-18T13:14:33;11.48;;;10.35;;
16254;SDS011;8235;52.198;9.904;2022-08-18T13:17:00;11.25;;;10.20;;
16254;SDS011;8235;52.198;9.904;2022-08-18T13:19:27;10.60;;;9.65;;
16254;SDS011;8235;52.198;9.904;2022-08-18T13:21:53;10.15;;;9.35;;
16254;SDS011;8235;52.198;9.904;2022-08-18T13:24:22;10.52;;;9.57;;
16254;SDS011;8235;52.198;9.904;2022-08-18T13:26:48;10.18;;;9.27;;
16254;SDS011;8235;52.198;9.904;2022-08-18T13:29:15;11.07;;;10.18;;
16254;SDS011;8235;52.198;9.904;2022-08-18T13:31:43;11.00;;;10.02;;
16254;SDS011;8235;52.198;9.904;2022-08-18T13:34:11;11.98;;;9.98;;
16254;SDS011;8235;52.198;9.904;2022-08-18T13:36:38;10.88;;;9.93;;
16254;SDS011;8235;52.198;9.904;2022-08-18T13:39:12;10.35;;;9.45;;
16254;SDS011;8235;52.198;9.904;2022-08-18T13:41:41;10.68;;;9.68;;
16254;SDS011;8235;52.198;9.904;2022-08-18T13:44:09;10.70;;;9.80;;
16254;SDS011;8235;52.198;9.904;2022-08-18T13:46:39;10.88;;;10.05;;
16254;SDS011;8235;52.198;9.904;2022-08-18T13:49:09;11.20;;;10.32;;
16254;SDS011;8235;52.198;9.904;2022-08-18T13:51:36;10.90;;;10.00;;
16254;SDS011;8235;52.198;9.904;2022-08-18T13:54:03;9.57;;;8.88;;
16254;SDS011;8235;52.198;9.904;2022-08-18T13:56:30;10.88;;;9.32;;
16254;SDS011;8235;52.198;9.904;2022-08-18T13:58:58;10.18;;;9.32;;
16254;SDS011;8235;52.198;9.904;2022-08-18T14:01:25;10.32;;;9.35;;
16254;SDS011;8235;52.198;9.904;2022-08-18T14:03:51;10.23;;;9.18;;
16254;SDS011;8235;52.198;9.904;2022-08-18T14:06:18;9.48;;;8.68;;
16254;SDS011;8235;52.198;9.904;2022-08-18T14:08:45;9.57;;;8.75;;
16254;SDS011;8235;52.198;9.904;2022-08-18T14:11:12;9.65;;;8.85;;
16254;SDS011;8235;52.198;9.904;2022-08-18T14:13:39;10.18;;;9.20;;
16254;SDS011;8235;52.198;9.904;2022-08-18T14:16:07;9.77;;;9.07;;
16254;SDS011;8235;52.198;9.904;2022-08-18T14:18:33;11.07;;;10.05;;
16254;SDS011;8235;52.198;9.904;2022-08-18T14:21:00;11.02;;;9.95;;
16254;SDS011;8235;52.198;9.904;2022-08-18T14:23:45;11.00;;;10.10;;
16254;SDS011;8235;52.198;9.904;2022-08-18T14:26:25;10.63;;;9.73;;
16254;SDS011;8235;52.198;9.904;2022-08-18T14:29:09;12.77;;;10.13;;
16254;SDS011;8235;52.198;9.904;2022-08-18T14:31:38;10.48;;;9.63;;
16254;SDS011;8235;52.198;9.904;2022-08-18T14:34:05;10.52;;;9.63;;
16254;SDS011;8235;52.198;9.904;2022-08-18T14:36:31;10.52;;;9.52;;
16254;SDS011;8235;52.198;9.904;2022-08-18T14:38:59;10.23;;;9.32;;
16254;SDS011;8235;52.198;9.904;2022-08-18T14:41:26;11.80;;;10.65;;
16254;SDS011;8235;52.198;9.904;2022-08-18T14:43:54;10.55;;;9.70;;
16254;SDS011;8235;52.198;9.904;2022-08-18T14:46:22;10.98;;;10.15;;
16254;SDS011;8235;52.198;9.904;2022-08-18T14:48:50;10.73;;;9.85;;
16254;SDS011;8235;52.198;9.904;2022-08-18T14:51:16;11.02;;;10.13;;
16254;SDS011;8235;52.198;9.904;2022-08-18T14:53:43;10.60;;;9.70;;
16254;SDS011;8235;52.198;9.904;2022-08-18T14:56:10;10.93;;;9.88;;
16254;SDS011;8235;52.198;9.904;2022-08-18T14:58:37;11.38;;;10.57;;
16254;SDS011;8235;52.198;9.904;2022-08-18T15:01:05;10.00;;;9.20;;
16254;SDS011;8235;52.198;9.904;2022-08-18T15:03:35;10.35;;;9.45;;
16254;SDS011;8235;52.198;9.904;2022-08-18T15:06:05;10.68;;;9.68;;
16254;SDS011;8235;52.198;9.904;2022-08-18T15:08:33;10.27;;;9.52;;
16254;SDS011;8235;52.198;9.904;2022-08-18T15:10:59;10.13;;;9.32;;
16254;SDS011;8235;52.198;9.904;2022-08-18T15:13:27;9.88;;;9.07;;
16254;SDS011;8235;52.198;9.904;2022-08-18T15:15:54;9.82;;;8.95;;
16254;SDS011;8235;52.198;9.904;2022-08-18T15:18:20;9.95;;;9.15;;
16254;SDS011;8235;52.198;9.904;2022-08-18T15:20:47;9.10;;;8.35;;
16254;SDS011;8235;52.198;9.904;2022-08-18T15:23:33;9.50;;;8.65;;
16254;SDS011;8235;52.198;9.904;2022-08-18T15:26:23;9.35;;;8.55;;
16254;SDS011;8235;52.198;9.904;2022-08-18T15:28:51;8.55;;;7.90;;
16254;SDS011;8235;52.198;9.904;2022-08-18T15:31:17;8.70;;;8.00;;